createdAt,value
2023-03-12T00:00:08.651Z,77.19
2023-03-12T00:02:35.491Z,77.27
2023-03-12T00:05:02.484Z,78.22
2023-03-12T00:07:29.368Z,78.59
2023-03-12T00:09:56.304Z,79.67
2023-03-12T00:12:23.118Z,79.59
2023-03-12T00:14:49.888Z,81.75
2023-03-12T00:17:16.677Z,80.79
2023-03-12T00:19:43.461Z,82.09
2023-03-12T00:22:10.252Z,80.84
2023-03-12T00:24:36.999Z,80.07
2023-03-12T00:27:03.880Z,80.13
2023-03-12T00:29:30.657Z,79.53
2023-03-12T00:31:57.380Z,79.95
2023-03-12T00:34:24.126Z,80.36
2023-03-12T00:36:50.912Z,81.21
2023-03-12T00:39:19.005Z,81.78
2023-03-12T00:41:45.754Z,82.47
2023-03-12T00:44:12.537Z,82.19
2023-03-12T00:46:39.321Z,82.78
2023-03-12T00:49:06.098Z,83.45
2023-03-12T00:51:32.866Z,84.39
2023-03-12T00:53:59.733Z,85.28
2023-03-12T00:56:26.606Z,86.45
2023-03-12T00:58:53.352Z,87.75
2023-03-12T01:01:20.332Z,89.12
2023-03-12T01:03:47.299Z,88.55
2023-03-12T01:06:14.181Z,89.83
2023-03-12T01:08:41.024Z,90.69
2023-03-12T01:11:07.784Z,90.71
2023-03-12T01:13:34.545Z,90.88
2023-03-12T01:16:01.402Z,91.16
2023-03-12T01:18:28.174Z,92.90
2023-03-12T01:20:55.029Z,93.01
2023-03-12T01:23:21.802Z,92.60
2023-03-12T01:25:49.525Z,92.87
2023-03-12T01:28:16.316Z,93.60
2023-03-12T01:30:43.060Z,93.82
2023-03-12T01:33:09.926Z,94.18
2023-03-12T01:35:39.537Z,93.97
2023-03-12T01:38:08.176Z,94.31
2023-03-12T01:40:36.456Z,93.42
2023-03-12T01:43:29.860Z,93.34
2023-03-12T01:46:27.529Z,92.80
2023-03-12T01:49:06.439Z,91.62
2023-03-12T01:51:48.305Z,92.23
2023-03-12T01:54:22.837Z,91.63
2023-03-12T01:56:50.828Z,90.73
2023-03-12T01:59:23.884Z,90.98
2023-03-12T02:01:51.791Z,90.23
2023-03-12T02:04:21.969Z,91.57
2023-03-12T02:07:09.211Z,91.92
2023-03-12T02:09:40.870Z,92.05
2023-03-12T02:12:08.551Z,92.35
2023-03-12T02:14:35.794Z,91.81
2023-03-12T02:17:02.813Z,92.52
2023-03-12T02:19:47.723Z,93.20
2023-03-12T02:22:15.355Z,94.02
2023-03-12T02:25:04.024Z,93.89
2023-03-12T02:27:36.734Z,93.72
2023-03-12T02:30:05.326Z,92.68
2023-03-12T02:32:38.518Z,93.72
2023-03-12T02:35:06.627Z,93.78
2023-03-12T02:37:33.383Z,94.49
2023-03-12T02:40:13.519Z,96.04
2023-03-12T02:42:40.806Z,96.24
2023-03-12T02:45:08.186Z,97.12
2023-03-12T02:47:34.978Z,97.24
2023-03-12T02:50:01.738Z,99.13
2023-03-12T02:52:28.502Z,100.00
2023-03-12T02:54:55.282Z,100.00
2023-03-12T02:57:22.084Z,100.00
2023-03-12T02:59:48.847Z,100.00
2023-03-12T03:02:15.589Z,100.00
2023-03-12T03:04:42.404Z,100.00
2023-03-12T03:07:09.256Z,100.00
2023-03-12T03:09:36.061Z,100.00
2023-03-12T03:12:02.830Z,100.00
2023-03-12T03:14:29.586Z,100.00
2023-03-12T03:16:56.454Z,100.00
2023-03-12T03:19:23.636Z,100.00
2023-03-12T03:21:50.410Z,100.00
2023-03-12T03:24:17.264Z,100.00
2023-03-12T03:26:44.656Z,100.00
2023-03-12T03:29:11.471Z,100.00
2023-03-12T03:31:38.306Z,100.00
2023-03-12T03:34:05.121Z,100.00
2023-03-12T03:36:31.954Z,100.00
2023-03-12T03:38:58.851Z,100.00
2023-03-12T03:41:26.340Z,100.00
2023-03-12T03:43:57.762Z,100.00
2023-03-12T03:46:25.529Z,100.00
2023-03-12T03:48:52.384Z,100.00
2023-03-12T03:51:19.135Z,100.00
2023-03-12T03:53:45.931Z,100.00
2023-03-12T03:56:15.536Z,100.00
2023-03-12T03:58:42.661Z,100.00
2023-03-12T04:01:09.817Z,100.00
2023-03-12T04:03:36.598Z,100.00
2023-03-12T04:06:05.604Z,100.00
2023-03-12T04:08:35.631Z,100.00
2023-03-12T04:11:17.505Z,100.00
2023-03-12T04:13:45.033Z,100.00
2023-03-12T04:16:12.805Z,100.00
2023-03-12T04:18:40.411Z,100.00
2023-03-12T04:21:09.319Z,100.00
2023-03-12T04:23:36.373Z,100.00
2023-03-12T04:26:04.366Z,100.00
2023-03-12T04:28:31.175Z,100.00
2023-03-12T04:31:00.541Z,100.00
2023-03-12T04:33:35.188Z,100.00
2023-03-12T04:36:02.224Z,100.00
2023-03-12T04:38:29.164Z,100.00
2023-03-12T04:41:11.277Z,100.00
2023-03-12T04:43:38.731Z,100.00
2023-03-12T04:46:06.633Z,100.00
2023-03-12T04:48:34.689Z,100.00
2023-03-12T04:51:02.498Z,100.00
2023-03-12T04:53:29.417Z,100.00
2023-03-12T04:55:56.294Z,100.00
2023-03-12T04:58:23.470Z,100.00
2023-03-12T05:00:50.348Z,100.00
2023-03-12T05:03:18.252Z,100.00
2023-03-12T05:05:45.069Z,100.00
2023-03-12T05:08:11.919Z,100.00
2023-03-12T05:10:38.821Z,100.00
2023-03-12T05:13:12.767Z,100.00
2023-03-12T05:15:39.533Z,100.00
2023-03-12T05:18:06.300Z,100.00
2023-03-12T05:20:33.048Z,100.00
2023-03-12T05:22:59.861Z,100.00
2023-03-12T05:25:26.591Z,100.00
2023-03-12T05:27:53.378Z,100.00
2023-03-12T05:30:20.245Z,100.00
2023-03-12T05:32:47.095Z,100.00
2023-03-12T05:35:14.239Z,100.00
2023-03-12T05:37:43.003Z,100.00
2023-03-12T05:40:11.888Z,100.00
2023-03-12T05:42:38.708Z,100.00
2023-03-12T05:45:06.303Z,100.00
2023-03-12T05:47:33.073Z,100.00
2023-03-12T05:49:59.853Z,100.00
2023-03-12T05:52:26.675Z,100.00
2023-03-12T05:54:53.696Z,100.00
2023-03-12T05:57:20.476Z,100.00
2023-03-12T05:59:47.281Z,100.00
2023-03-12T06:02:14.115Z,100.00
2023-03-12T06:04:40.891Z,100.00
2023-03-12T06:07:07.753Z,100.00
2023-03-12T06:09:35.519Z,100.00
2023-03-12T06:12:02.263Z,100.00
2023-03-12T06:14:29.099Z,100.00
2023-03-12T06:16:56.052Z,100.00
2023-03-12T06:19:22.963Z,100.00
2023-03-12T06:21:49.836Z,100.00
2023-03-12T06:24:16.586Z,100.00
2023-03-12T06:26:43.546Z,100.00
2023-03-12T06:29:10.507Z,100.00
2023-03-12T06:31:38.874Z,100.00
2023-03-12T06:34:06.353Z,100.00
2023-03-12T06:36:33.160Z,100.00
2023-03-12T06:39:00.021Z,100.00
2023-03-12T06:41:26.819Z,100.00
2023-03-12T06:43:53.607Z,100.00
2023-03-12T06:46:25.823Z,100.00
2023-03-12T06:48:52.645Z,100.00
2023-03-12T06:51:19.601Z,100.00
2023-03-12T06:53:46.773Z,100.00
2023-03-12T06:56:13.967Z,100.00
2023-03-12T06:58:41.770Z,100.00
2023-03-12T07:01:09.228Z,100.00
2023-03-12T07:03:36.220Z,100.00
2023-03-12T07:06:03.531Z,100.00
2023-03-12T07:08:31.261Z,100.00
2023-03-12T07:11:01.626Z,87.57
2023-03-12T07:13:29.513Z,69.70
2023-03-12T07:15:56.412Z,57.19
2023-03-12T07:18:23.258Z,51.09
2023-03-12T07:20:50.275Z,46.82
2023-03-12T07:23:17.034Z,47.54
2023-03-12T07:25:44.909Z,47.39
2023-03-12T07:28:13.002Z,46.54
2023-03-12T07:30:40.272Z,45.73
2023-03-12T07:33:10.516Z,45.30
2023-03-12T07:35:41.256Z,46.24
2023-03-12T07:38:08.573Z,43.05
2023-03-12T07:40:36.585Z,42.80
2023-03-12T07:43:06.028Z,41.59
2023-03-12T07:45:32.821Z,41.50
2023-03-12T07:47:59.603Z,41.01
2023-03-12T07:50:27.005Z,42.90
2023-03-12T07:52:53.813Z,43.05
2023-03-12T07:55:20.761Z,41.59
2023-03-12T07:57:47.843Z,39.45
2023-03-12T08:00:15.540Z,38.55
2023-03-12T08:02:42.802Z,38.98
2023-03-12T08:05:10.332Z,38.18
2023-03-12T08:07:37.901Z,38.05
2023-03-12T08:10:08.664Z,38.51
2023-03-12T08:12:37.651Z,38.02
2023-03-12T08:15:06.273Z,38.05
2023-03-12T08:17:33.052Z,37.19
2023-03-12T08:19:59.833Z,36.20
2023-03-12T08:22:26.901Z,35.94
2023-03-12T08:24:53.685Z,35.87
2023-03-12T08:27:20.551Z,34.85
2023-03-12T08:29:47.337Z,36.15
2023-03-12T08:32:14.301Z,35.84
2023-03-12T08:34:41.386Z,35.22
2023-03-12T08:37:08.915Z,35.08
2023-03-12T08:39:35.952Z,35.57
2023-03-12T08:42:02.947Z,35.98
2023-03-12T08:44:30.008Z,34.51
2023-03-12T08:46:56.837Z,34.71
2023-03-12T08:49:24.051Z,36.30
2023-03-12T08:51:54.073Z,35.95
2023-03-12T08:54:21.636Z,34.61
2023-03-12T08:56:52.791Z,35.05
2023-03-12T08:59:20.935Z,35.01
2023-03-12T09:01:48.057Z,35.33
2023-03-12T09:04:15.166Z,35.01
2023-03-12T09:06:42.153Z,34.97
2023-03-12T09:09:09.231Z,35.20
2023-03-12T09:11:39.897Z,36.28
2023-03-12T09:15:01.012Z,34.67
2023-03-12T09:16:54.326Z,33.76
2023-03-12T09:19:21.319Z,34.51
2023-03-12T09:21:48.121Z,36.13
2023-03-12T09:24:15.291Z,36.86
2023-03-12T09:26:42.460Z,36.99
2023-03-12T09:29:09.426Z,36.93
2023-03-12T09:31:36.689Z,37.88
2023-03-12T09:34:04.860Z,37.57
2023-03-12T09:36:32.171Z,38.30
2023-03-12T09:38:59.199Z,38.34
2023-03-12T09:41:29.391Z,39.06
2023-03-12T09:44:02.708Z,39.60
2023-03-12T09:47:02.178Z,39.34
2023-03-12T09:49:41.122Z,38.90
2023-03-12T09:52:33.923Z,39.28
2023-03-12T09:55:07.950Z,40.11
2023-03-12T09:57:35.057Z,39.78
2023-03-12T10:00:02.120Z,39.64
2023-03-12T10:03:01.147Z,40.29
2023-03-12T10:05:45.387Z,40.06
2023-03-12T10:08:45.951Z,39.78
2023-03-12T10:11:18.943Z,40.12
2023-03-12T10:14:00.725Z,40.06
2023-03-12T10:16:36.412Z,40.34
2023-03-12T10:19:27.511Z,39.50
2023-03-12T10:22:12.388Z,39.28
2023-03-12T10:24:52.609Z,39.75
2023-03-12T10:27:22.753Z,40.14
2023-03-12T10:29:52.566Z,39.89
2023-03-12T10:32:27.728Z,40.15
2023-03-12T10:35:05.080Z,40.54
2023-03-12T10:37:37.484Z,40.37
2023-03-12T10:40:06.163Z,40.29
2023-03-12T10:42:33.039Z,39.94
2023-03-12T10:45:14.459Z,40.50
2023-03-12T10:47:44.639Z,40.16
2023-03-12T10:50:15.334Z,40.09
2023-03-12T10:52:43.068Z,40.53
2023-03-12T10:55:23.986Z,40.11
2023-03-12T10:57:50.964Z,39.99
2023-03-12T11:00:27.393Z,39.78
2023-03-12T11:03:03.605Z,40.33
2023-03-12T11:05:48.737Z,40.51
2023-03-12T11:08:21.629Z,39.95
2023-03-12T11:10:48.389Z,39.32
2023-03-12T11:13:28.189Z,39.88
2023-03-12T11:16:00.334Z,40.41
2023-03-12T11:18:37.948Z,38.92
2023-03-12T11:21:17.308Z,39.24
2023-03-12T11:23:48.622Z,38.50
2023-03-12T11:26:19.996Z,39.06
2023-03-12T11:28:52.909Z,39.31
2023-03-12T11:31:25.347Z,37.51
2023-03-12T11:33:54.740Z,39.49
2023-03-12T11:36:34.185Z,38.82
2023-03-12T11:39:22.674Z,38.50
2023-03-12T11:41:58.152Z,38.60
2023-03-12T11:44:34.258Z,38.42
2023-03-12T11:47:14.807Z,38.61
2023-03-12T11:50:00.516Z,38.78
2023-03-12T11:52:48.351Z,38.00
2023-03-12T11:55:41.389Z,39.11
2023-03-12T11:58:49.258Z,38.79
2023-03-12T12:01:31.351Z,38.53
2023-03-12T12:04:25.099Z,38.64
2023-03-12T12:07:17.547Z,39.12
2023-03-12T12:09:53.467Z,39.34
2023-03-12T12:12:41.670Z,38.28
2023-03-12T12:15:26.544Z,38.36
2023-03-12T12:18:16.095Z,38.90
2023-03-12T12:20:52.103Z,38.88
2023-03-12T12:24:01.526Z,38.54
2023-03-12T12:26:31.414Z,38.81
2023-03-12T12:29:35.614Z,38.78
2023-03-12T12:32:04.576Z,38.78
2023-03-12T12:34:43.203Z,37.83
2023-03-12T12:37:24.968Z,37.70
2023-03-12T12:40:09.022Z,37.49
2023-03-12T12:42:39.828Z,38.17
2023-03-12T12:45:07.354Z,37.39
2023-03-12T12:47:41.200Z,38.02
2023-03-12T12:50:14.787Z,37.72
2023-03-12T12:52:41.910Z,37.32
2023-03-12T12:55:08.654Z,37.67
2023-03-12T12:57:54.049Z,37.43
2023-03-12T13:00:23.793Z,37.85
2023-03-12T13:02:50.833Z,37.21
2023-03-12T13:05:47.125Z,38.44
2023-03-12T13:08:31.954Z,37.50
2023-03-12T13:11:16.261Z,36.52
2023-03-12T13:13:45.530Z,36.70
2023-03-12T13:16:31.269Z,36.16
2023-03-12T13:19:16.383Z,36.82
2023-03-12T13:21:52.190Z,37.02
2023-03-12T13:24:23.185Z,36.81
2023-03-12T13:26:49.879Z,36.76
2023-03-12T13:29:20.995Z,37.07
2023-03-12T13:31:47.856Z,37.04
2023-03-12T13:34:17.977Z,37.38
2023-03-12T13:36:50.906Z,36.71
2023-03-12T13:39:17.500Z,36.60
2023-03-12T13:41:47.429Z,36.46
2023-03-12T13:44:23.404Z,36.54
2023-03-12T13:46:58.473Z,36.51
2023-03-12T13:49:25.516Z,36.60
2023-03-12T13:51:56.309Z,36.98
2023-03-12T13:54:25.786Z,36.10
2023-03-12T13:56:57.896Z,36.01
2023-03-12T13:59:26.368Z,35.74
2023-03-12T14:01:57.214Z,35.59
2023-03-12T14:04:28.224Z,36.37
2023-03-12T14:07:03.852Z,35.42
2023-03-12T14:09:33.326Z,36.11
2023-03-12T14:12:13.442Z,36.29
2023-03-12T14:14:48.100Z,35.77
2023-03-12T14:17:24.388Z,35.86
2023-03-12T14:20:00.900Z,36.22
2023-03-12T14:22:32.164Z,35.90
2023-03-12T14:25:02.401Z,35.92
2023-03-12T14:27:34.505Z,36.50
2023-03-12T14:30:12.175Z,36.73
2023-03-12T14:32:40.351Z,35.81
2023-03-12T14:35:22.555Z,36.23
2023-03-12T14:38:21.632Z,36.19
2023-03-12T14:40:53.722Z,37.44
2023-03-12T14:43:25.457Z,37.17
2023-03-12T14:45:56.056Z,37.44
2023-03-12T14:48:33.042Z,36.73
2023-03-12T14:51:01.477Z,36.78
2023-03-12T14:53:30.562Z,36.74
2023-03-12T14:56:29.531Z,36.54
2023-03-12T14:58:57.202Z,37.30
2023-03-12T15:01:26.284Z,37.66
2023-03-12T15:03:55.860Z,37.31
2023-03-12T15:06:29.754Z,37.29
2023-03-12T15:08:57.842Z,37.61
2023-03-12T15:11:26.402Z,37.23
2023-03-12T15:13:54.355Z,36.94
2023-03-12T15:16:21.622Z,37.11
2023-03-12T15:18:50.420Z,37.13
2023-03-12T15:21:17.372Z,37.39
2023-03-12T15:23:46.233Z,37.50
2023-03-12T15:26:17.171Z,38.00
2023-03-12T15:28:44.121Z,38.02
2023-03-12T15:31:18.182Z,37.94
2023-03-12T15:33:45.185Z,37.27
2023-03-12T15:36:15.228Z,37.23
2023-03-12T15:39:02.522Z,37.08
2023-03-12T15:44:00.360Z,37.69
2023-03-12T15:46:28.264Z,38.11
2023-03-12T15:49:01.639Z,37.90
2023-03-12T15:51:35.175Z,38.55
2023-03-12T15:54:06.156Z,38.39
2023-03-12T15:56:35.169Z,38.99
2023-03-12T15:59:23.703Z,38.71
2023-03-12T16:01:56.028Z,39.17
2023-03-12T16:04:24.875Z,38.66
2023-03-12T16:06:53.601Z,39.10
2023-03-12T16:09:26.319Z,39.43
2023-03-12T16:11:56.200Z,39.75
2023-03-12T16:14:28.703Z,39.98
2023-03-12T16:16:56.191Z,40.04
2023-03-12T16:19:24.169Z,40.56
2023-03-12T16:21:51.727Z,40.76
2023-03-12T16:24:24.522Z,40.89
2023-03-12T16:26:57.139Z,41.06
2023-03-12T16:29:32.456Z,41.09
2023-03-12T16:32:00.269Z,41.13
2023-03-12T16:34:28.710Z,41.65
2023-03-12T16:36:56.713Z,42.21
2023-03-12T16:39:24.344Z,42.49
2023-03-12T16:41:51.957Z,42.71
2023-03-12T16:44:21.816Z,43.07
2023-03-12T16:46:50.099Z,43.37
2023-03-12T16:49:20.291Z,43.76
2023-03-12T16:51:48.264Z,44.31
2023-03-12T16:54:15.501Z,44.91
2023-03-12T16:56:47.052Z,45.23
2023-03-12T16:59:25.143Z,46.05
2023-03-12T17:01:52.967Z,46.48
2023-03-12T17:04:20.364Z,46.54
2023-03-12T17:06:47.619Z,47.45
2023-03-12T17:09:16.458Z,47.81
2023-03-12T17:11:44.173Z,49.22
2023-03-12T17:14:21.198Z,50.91
2023-03-12T17:16:48.756Z,51.49
2023-03-12T17:19:16.616Z,51.84
2023-03-12T17:21:44.519Z,52.58
2023-03-12T17:24:15.972Z,54.95
2023-03-12T17:26:45.043Z,53.67
2023-03-12T17:29:12.707Z,54.25
2023-03-12T17:31:39.793Z,55.78
2023-03-12T17:34:07.362Z,56.44
2023-03-12T17:36:36.572Z,56.89
2023-03-12T17:39:04.076Z,56.89
2023-03-12T17:41:32.605Z,57.30
2023-03-12T17:44:04.347Z,59.31
2023-03-12T17:46:32.080Z,59.05
2023-03-12T17:48:59.339Z,60.30
2023-03-12T17:51:26.243Z,61.62
2023-03-12T17:53:53.422Z,61.38
2023-03-12T17:56:22.465Z,63.31
2023-03-12T17:58:50.827Z,63.13
2023-03-12T18:01:18.655Z,63.48
2023-03-12T18:03:45.511Z,63.97
2023-03-12T18:06:13.120Z,65.48
2023-03-12T18:08:40.615Z,65.54
2023-03-12T18:11:07.980Z,66.53
2023-03-12T18:13:34.735Z,65.38
2023-03-12T18:16:01.773Z,65.66
2023-03-12T18:18:29.654Z,66.71
2023-03-12T18:20:58.074Z,67.26
2023-03-12T18:23:26.976Z,68.61
2023-03-12T18:25:54.275Z,68.43
2023-03-12T18:28:24.090Z,69.65
2023-03-12T18:30:51.579Z,70.06
2023-03-12T18:33:20.674Z,68.75
2023-03-12T18:35:49.166Z,69.58
2023-03-12T18:38:16.579Z,70.60
2023-03-12T18:40:44.134Z,71.54
2023-03-12T18:43:13.838Z,71.16
2023-03-12T18:45:48.198Z,71.16
2023-03-12T18:48:15.775Z,71.54
2023-03-12T18:50:43.411Z,72.09
2023-03-12T18:53:10.965Z,72.06
2023-03-12T18:55:38.358Z,72.75
2023-03-12T18:58:08.608Z,73.43
2023-03-12T19:00:37.373Z,73.69
2023-03-12T19:03:06.533Z,74.05
2023-03-12T19:05:33.939Z,73.53
2023-03-12T19:08:02.566Z,73.31
2023-03-12T19:10:30.073Z,73.15
2023-03-12T19:12:58.718Z,73.55
2023-03-12T19:15:26.620Z,73.99
2023-03-12T19:17:55.482Z,74.42
2023-03-12T19:20:23.088Z,74.16
2023-03-12T19:22:50.941Z,74.43
2023-03-12T19:25:21.452Z,75.00
2023-03-12T19:27:49.236Z,75.27
2023-03-12T19:30:16.699Z,76.09
2023-03-12T19:32:44.689Z,75.27
2023-03-12T19:35:13.269Z,75.22
2023-03-12T19:37:40.946Z,75.06
2023-03-12T19:40:08.876Z,76.87
2023-03-12T19:42:36.421Z,79.10
2023-03-12T19:45:03.603Z,81.20
2023-03-12T19:47:33.418Z,84.49
2023-03-12T19:50:04.270Z,86.64
2023-03-12T19:52:35.400Z,89.23
2023-03-12T19:55:05.874Z,89.75
2023-03-12T19:57:34.080Z,90.14
2023-03-12T20:00:01.850Z,91.57
2023-03-12T20:02:30.974Z,90.94
2023-03-12T20:04:58.673Z,90.06
2023-03-12T20:07:26.985Z,89.02
2023-03-12T20:09:54.482Z,86.29
2023-03-12T20:12:24.769Z,86.26
2023-03-12T20:14:52.322Z,85.79
2023-03-12T20:17:20.271Z,84.74
2023-03-12T20:19:48.253Z,84.12
2023-03-12T20:22:15.456Z,84.20
2023-03-12T20:24:42.929Z,83.26
2023-03-12T20:27:10.297Z,83.43
2023-03-12T20:29:37.780Z,84.14
2023-03-12T20:32:05.452Z,85.47
2023-03-12T20:34:32.959Z,86.26
2023-03-12T20:37:00.088Z,88.12
2023-03-12T20:39:27.720Z,88.71
2023-03-12T20:41:55.295Z,88.90
2023-03-12T20:44:22.979Z,89.23
2023-03-12T20:46:50.284Z,88.83
2023-03-12T20:49:17.840Z,85.81
2023-03-12T20:51:48.769Z,80.94
2023-03-12T20:54:16.984Z,77.75
2023-03-12T20:56:45.490Z,78.11
2023-03-12T20:59:13.345Z,75.49
2023-03-12T21:01:43.633Z,73.62
2023-03-12T21:04:11.706Z,75.05
2023-03-12T21:06:38.810Z,73.99
2023-03-12T21:09:05.850Z,74.23
2023-03-12T21:11:33.257Z,74.25
2023-03-12T21:14:03.011Z,74.65
2023-03-12T21:16:29.993Z,74.92
2023-03-12T21:18:57.278Z,74.80
2023-03-12T21:21:24.088Z,74.32
2023-03-12T21:23:51.266Z,74.09
2023-03-12T21:26:19.252Z,74.77
2023-03-12T21:28:46.153Z,74.68
2023-03-12T21:31:14.107Z,75.71
2023-03-12T21:33:41.892Z,75.80
2023-03-12T21:36:10.511Z,76.20
2023-03-12T21:38:38.154Z,76.05
2023-03-12T21:41:05.698Z,76.75
2023-03-12T21:43:32.429Z,77.15
2023-03-12T21:46:03.404Z,77.62
2023-03-12T21:48:30.162Z,78.89
2023-03-12T21:51:00.791Z,78.94
2023-03-12T21:53:27.804Z,79.52
2023-03-12T21:55:58.345Z,79.99
2023-03-12T21:58:25.598Z,80.97
2023-03-12T22:00:52.315Z,80.80
2023-03-12T22:03:18.999Z,81.21
2023-03-12T22:05:50.909Z,83.27
2023-03-12T22:08:17.524Z,83.87
2023-03-12T22:10:45.270Z,84.04
2023-03-12T22:13:11.971Z,84.58
2023-03-12T22:15:38.754Z,84.57
2023-03-12T22:18:05.379Z,84.46
2023-03-12T22:20:34.581Z,83.65
2023-03-12T22:23:03.422Z,82.62
2023-03-12T22:25:30.034Z,80.59
2023-03-12T22:27:56.686Z,80.38
2023-03-12T22:30:23.347Z,80.40
2023-03-12T22:32:49.974Z,80.73
2023-03-12T22:35:16.732Z,80.82
2023-03-12T22:37:44.430Z,80.63
2023-03-12T22:40:11.402Z,79.56
2023-03-12T22:42:41.160Z,79.19
2023-03-12T22:45:08.260Z,80.16
2023-03-12T22:47:35.003Z,78.83
2023-03-12T22:50:01.639Z,78.53
2023-03-12T22:52:28.280Z,78.63
2023-03-12T22:54:54.884Z,78.57
2023-03-12T22:57:21.496Z,78.46
2023-03-12T22:59:48.381Z,78.40
2023-03-12T23:02:15.071Z,79.00
2023-03-12T23:04:41.755Z,78.38
2023-03-12T23:07:15.201Z,77.67
2023-03-12T23:09:44.039Z,77.55
2023-03-12T23:12:10.670Z,77.66
2023-03-12T23:14:37.324Z,77.40
2023-03-12T23:17:03.975Z,77.71
2023-03-12T23:19:34.217Z,78.67
2023-03-12T23:22:00.812Z,78.06
2023-03-12T23:24:29.530Z,77.66
2023-03-12T23:26:57.288Z,77.50
2023-03-12T23:29:23.937Z,77.15
2023-03-12T23:31:50.650Z,77.42
2023-03-12T23:34:17.966Z,77.53
2023-03-12T23:36:46.179Z,75.47
2023-03-12T23:39:12.979Z,75.75
2023-03-12T23:41:39.773Z,76.86
2023-03-12T23:44:06.390Z,76.40
2023-03-12T23:46:33.061Z,77.19
2023-03-12T23:49:00.039Z,77.79
2023-03-12T23:51:28.032Z,77.69
2023-03-12T23:54:01.800Z,78.30
2023-03-12T23:56:32.345Z,78.21
2023-03-12T23:58:59.044Z,77.28
